Cebu Island — 3FIN8 — position and weather

sailwx.info

Track history (hours):
 
Tides and Currents Weather Stations Pressure Air Temp Water Temp Dewpoint Dewpoint Depression Visibility Wind Speed Wind Dir Waves Ship Positions

Cebu Island

Last reported at 2017-Sep-29 05:20 UTC. Time now 2017-Oct-18 11:20 UTC.
Position N 46°12' W 124°57'.
Warning: this ship's position is 19 days out of date.

Length 180 m; draft 11.3 m.

Type: Cargo ship. MMSI: 374077000.

Date/timePositionNaut miles runAvg speedWind from/ knotsBaromVisibWave heightAir tempDewpointWater temp
2017-Sep-29 05:20N 46°12' W 124°57'413.3
2017-Sep-29 05:01N 46°11' W 124°51'713.3
2017-Sep-29 04:30N 46°11' W 124°42'713.0
2017-Sep-29 04:00N 46°12' W 124°32'613.0
2017-Sep-29 03:31N 46°12' W 124°23'612.5
2017-Sep-29 03:01N 46°12' W 124°14'4 8.6
2017-Sep-29 02:30N 46°14' W 124°08'510.3
2017-Sep-29 02:01N 46°15' W 124°01'510.5
2017-Sep-29 01:30N 46°12' W 123°56'4 8.7
2017-Sep-29 01:01N 46°12' W 123°49'4 7.8
2017-Sep-29 00:31N 46°14' W 123°44'5 9.9
2017-Sep-29 00:01N 46°16' W 123°38'510.8
2017-Sep-28 23:30N 46°16' W 123°30'5 9.4
2017-Sep-28 23:00N 46°13' W 123°25'7 9.1
2017-Sep-28 22:14N 46°09' W 123°17'312.7
2017-Sep-28 22:00N 46°10' W 123°14'611.1
2017-Sep-28 21:30N 46°10' W 123°06'611.8
2017-Sep-28 21:01N 46°07' W 122°59'510.0
2017-Sep-28 20:30N 46°04' W 122°53'510.3
2017-Sep-28 20:01N 45°59' W 122°50'510.2
2017-Sep-28 19:30N 45°54' W 122°48'511.0
2017-Sep-28 19:00N 45°48' W 122°48'611.2
2017-Sep-28 18:30N 45°43' W 122°46'4 8.9
2017-Sep-28 18:00N 45°39' W 122°44'2 3.8
2017-Sep-28 17:30N 45°38' W 122°42'0 0.2
2017-Sep-28 16:56N 45°38' W 122°42'0 0.0
2017-Sep-28 16:28N 45°38' W 122°42'0 0.0
2017-Sep-28 15:58N 45°38' W 122°42'0 0.0
2017-Sep-28 15:07N 45°38' W 122°42'0 0.0
2017-Sep-28 14:55N 45°38' W 122°42'0 0.0
2017-Sep-28 14:28N 45°38' W 122°42'0 0.0
2017-Sep-28 13:56N 45°38' W 122°42'0 0.0
2017-Sep-28 13:22N 45°38' W 122°42'0 0.0
2017-Sep-28 12:58N 45°38' W 122°42'0 0.0
2017-Sep-28 12:28N 45°38' W 122°42'0 0.0
2017-Sep-28 11:58N 45°38' W 122°42'0 0.0
2017-Sep-28 11:28N 45°38' W 122°42'0 0.0
2017-Sep-28 10:58N 45°38' W 122°42'0 0.0
2017-Sep-28 10:29N 45°38' W 122°42'0 0.0
2017-Sep-28 09:55N 45°38' W 122°42'0 0.0
2017-Sep-28 09:28N 45°38' W 122°42'0 0.0
2017-Sep-28 08:58N 45°38' W 122°42'0 0.0
2017-Sep-28 08:25N 45°38' W 122°42'0 0.0
2017-Sep-28 07:49N 45°38' W 122°42'0 0.0
2017-Sep-28 07:25N 45°38' W 122°42'0 0.0
2017-Sep-28 06:58N 45°38' W 122°42'0 0.0
2017-Sep-28 06:25N 45°38' W 122°42'0 0.0
2017-Sep-28 05:58N 45°38' W 122°42'0 0.0
2017-Sep-28 05:28N 45°38' W 122°42'0 0.0
2017-Sep-28 04:58N 45°38' W 122°42'0 0.0
2017-Sep-28 04:25N 45°38' W 122°42'0 0.0
2017-Sep-28 03:58N 45°38' W 122°42'0 0.0
2017-Sep-28 03:22N 45°38' W 122°42'0 0.0
2017-Sep-28 02:58N 45°38' W 122°42'0 0.0
2017-Sep-28 02:22N 45°38' W 122°42'0 0.0
2017-Sep-28 01:58N 45°38' W 122°42'0 0.0
2017-Sep-28 01:25N 45°38' W 122°42'0 0.0
2017-Sep-28 00:58N 45°38' W 122°42'0 0.0
2017-Sep-28 00:25N 45°38' W 122°42'0 0.0
2017-Sep-27 23:52N 45°38' W 122°42'0 0.0
2017-Sep-27 23:13N 45°38' W 122°42'0 0.0
2017-Sep-27 22:58N 45°38' W 122°42'0 0.0
2017-Sep-27 22:28N 45°38' W 122°42'0 0.0
2017-Sep-27 21:58N 45°38' W 122°42'0 0.0
2017-Sep-27 21:28N 45°38' W 122°42'0 0.0
2017-Sep-27 20:58N 45°38' W 122°42'0 0.0
2017-Sep-27 20:28N 45°38' W 122°42'0 0.0
2017-Sep-27 19:58N 45°38' W 122°42'0 0.0
2017-Sep-27 19:28N 45°38' W 122°42'0 0.0
2017-Sep-27 18:58N 45°38' W 122°42'0 0.0
2017-Sep-27 18:28N 45°38' W 122°42'0 0.0
2017-Sep-27 17:58N 45°38' W 122°42'0 0.0
2017-Sep-27 17:28N 45°38' W 122°42'0 0.0
2017-Sep-27 16:58N 45°38' W 122°42'0 0.0
2017-Sep-27 16:28N 45°38' W 122°42'0 0.0
2017-Sep-27 15:58N 45°38' W 122°42'0 0.0
2017-Sep-27 15:28N 45°38' W 122°42'0 0.0
2017-Sep-27 14:58N 45°38' W 122°42'0 0.0
2017-Sep-27 14:25N 45°38' W 122°42'0 0.0
2017-Sep-27 13:58N 45°38' W 122°42'0 0.0
2017-Sep-27 13:28N 45°38' W 122°42'0 0.0
2017-Sep-27 12:58N 45°38' W 122°42'0 0.0
2017-Sep-27 12:28N 45°38' W 122°42'0 0.0
2017-Sep-27 11:58N 45°38' W 122°42'0 0.0
2017-Sep-27 11:25N 45°38' W 122°42'0 0.0
2017-Sep-27 10:58N 45°38' W 122°42'0 0.0
2017-Sep-27 10:28N 45°38' W 122°42'0 0.0
2017-Sep-27 09:58N 45°38' W 122°42'0 0.0
2017-Sep-27 09:28N 45°38' W 122°42'0 0.0
2017-Sep-27 08:58N 45°38' W 122°42'0 0.0
2017-Sep-27 08:25N 45°38' W 122°42'0 0.0
2017-Sep-27 07:58N 45°38' W 122°42'0 0.0
2017-Sep-27 07:28N 45°38' W 122°42'0 0.0
2017-Sep-27 06:52N 45°38' W 122°42'0 0.0
2017-Sep-27 06:28N 45°38' W 122°42'0 0.0
2017-Sep-27 05:55N 45°38' W 122°42'0 0.0
2017-Sep-27 05:28N 45°38' W 122°42'0 0.0
2017-Sep-27 04:55N 45°38' W 122°42'0 0.0
2017-Sep-27 04:28N 45°38' W 122°42'0 0.0
2017-Sep-27 03:58N 45°38' W 122°42'0 0.0
2017-Sep-27 03:28N 45°38' W 122°42'0 0.0
2017-Sep-27 02:55N 45°38' W 122°42'0 0.0
2017-Sep-27 02:28N 45°38' W 122°42'0 0.0
2017-Sep-27 01:58N 45°38' W 122°42'0 0.0
2017-Sep-27 01:28N 45°38' W 122°42'0 0.0
2017-Sep-27 00:46N 45°38' W 122°42'0 0.0
2017-Sep-27 00:28N 45°38' W 122°42'0 0.0
2017-Sep-26 23:58N 45°38' W 122°42'0 0.0
2017-Sep-26 23:28N 45°38' W 122°42'0 0.0
2017-Sep-26 22:46N 45°38' W 122°42'0 0.0
2017-Sep-26 22:28N 45°38' W 122°42'0 0.0
2017-Sep-26 21:55N 45°38' W 122°42'0 0.0
2017-Sep-26 21:19N 45°38' W 122°42'0 0.0
2017-Sep-26 20:58N 45°38' W 122°42'0 0.0
2017-Sep-26 20:19N 45°38' W 122°42'0 0.0
2017-Sep-26 19:46N 45°38' W 122°42'0 0.0
2017-Sep-26 19:28N 45°38' W 122°42'0 0.0
2017-Sep-26 18:58N 45°38' W 122°42'0 0.0
2017-Sep-26 18:28N 45°38' W 122°42'0 0.0
2017-Sep-26 17:58N 45°38' W 122°42'0 0.0
2017-Sep-26 17:28N 45°38' W 122°42'0 0.0
2017-Sep-26 16:58N 45°38' W 122°42'0 0.0
2017-Sep-26 16:28N 45°38' W 122°42'0 0.0
2017-Sep-26 15:58N 45°38' W 122°42'0 0.0
2017-Sep-26 15:28N 45°38' W 122°42'0 0.0
2017-Sep-26 14:58N 45°38' W 122°42'0 0.0
2017-Sep-26 14:28N 45°38' W 122°42'0 0.0
2017-Sep-26 13:58N 45°38' W 122°42'0 0.0
2017-Sep-26 13:28N 45°38' W 122°42'0 0.0
2017-Sep-26 12:58N 45°38' W 122°42'0 0.0
2017-Sep-26 12:28N 45°38' W 122°42'0 0.0
2017-Sep-26 11:52N 45°38' W 122°42'0 0.0
2017-Sep-26 11:22N 45°38' W 122°42'0 0.1
2017-Sep-26 10:55N 45°38' W 122°42'0 0.0
2017-Sep-26 10:28N 45°38' W 122°42'0 0.0
2017-Sep-26 09:58N 45°38' W 122°42'0 0.1
2017-Sep-26 09:28N 45°38' W 122°42'0 0.0
2017-Sep-26 08:58N 45°38' W 122°42'0 0.0
2017-Sep-26 08:22N 45°38' W 122°42'0 0.0
2017-Sep-26 07:58N 45°38' W 122°42'0 0.0
2017-Sep-26 07:28N 45°38' W 122°42'0 0.0
2017-Sep-26 06:55N 45°38' W 122°42'0 0.0
2017-Sep-26 06:25N 45°38' W 122°42'0 0.0
2017-Sep-26 05:58N 45°38' W 122°42'0 0.0
2017-Sep-26 05:28N 45°38' W 122°42'0 0.0
2017-Sep-26 04:58N 45°38' W 122°42'0 0.0
2017-Sep-26 04:10N 45°38' W 122°42'0 0.0
2017-Sep-26 03:58N 45°38' W 122°42'0 0.0
2017-Sep-26 03:28N 45°38' W 122°42'0 0.0
2017-Sep-26 02:58N 45°38' W 122°42'0 0.0
2017-Sep-26 02:22N 45°38' W 122°42'0 0.0
2017-Sep-26 01:58N 45°38' W 122°42'0 0.0
2017-Sep-26 01:28N 45°38' W 122°42'0 0.0
2017-Sep-26 00:58N 45°38' W 122°42'0 0.0
2017-Sep-26 00:25N 45°38' W 122°42'0 0.0
2017-Sep-25 23:55N 45°38' W 122°42'0 0.0
2017-Sep-25 23:29N 45°38' W 122°42'0 0.0
2017-Sep-25 22:43N 45°38' W 122°42'0 0.0
2017-Sep-25 22:28N 45°38' W 122°42'0 0.0
2017-Sep-25 21:58N 45°38' W 122°42'0 0.0
2017-Sep-25 21:28N 45°38' W 122°42'0 0.0
2017-Sep-25 20:52N 45°38' W 122°42'0 0.0
2017-Sep-25 20:01N 45°38' W 122°42'0 0.1
2017-Sep-25 19:55N 45°38' W 122°42'0 0.0
2017-Sep-25 19:22N 45°38' W 122°42'0 0.0
2017-Sep-25 18:55N 45°38' W 122°42'0 0.0
2017-Sep-25 18:28N 45°38' W 122°42'0 0.0
2017-Sep-25 17:58N 45°38' W 122°42'0 0.0
2017-Sep-25 17:07N 45°38' W 122°42'0 0.0
2017-Sep-25 16:52N 45°38' W 122°42'0 0.0
2017-Sep-25 16:28N 45°38' W 122°42'0 0.0
2017-Sep-25 15:55N 45°38' W 122°42'0 0.0
2017-Sep-25 15:25N 45°38' W 122°42'0 0.0
2017-Sep-25 14:58N 45°38' W 122°42'0 0.0
2017-Sep-25 14:28N 45°38' W 122°42'0 0.0
2017-Sep-25 13:52N 45°38' W 122°42'0 0.0
2017-Sep-25 13:30N 45°38' W 122°42'1 2.6
2017-Sep-25 13:00N 45°38' W 122°43'0 0.5
2017-Sep-25 12:16N 45°38' W 122°44'0 0.0
2017-Sep-25 11:58N 45°38' W 122°44'0 0.0
2017-Sep-25 11:28N 45°38' W 122°44'0 0.0
2017-Sep-25 10:58N 45°38' W 122°44'0 0.0
2017-Sep-25 10:22N 45°38' W 122°44'0 0.0
2017-Sep-25 09:55N 45°38' W 122°44'0 0.0
2017-Sep-25 09:28N 45°38' W 122°44'0 0.0
2017-Sep-25 08:58N 45°38' W 122°44'0 0.0
2017-Sep-25 08:10N 45°38' W 122°44'0 0.0
2017-Sep-25 07:59N 45°38' W 122°44'0 0.0
2017-Sep-25 07:29N 45°38' W 122°44'0 0.0
2017-Sep-25 06:58N 45°38' W 122°44'0 0.0
2017-Sep-25 06:29N 45°38' W 122°44'0 0.0
2017-Sep-25 05:59N 45°38' W 122°44'0 0.1
2017-Sep-25 05:29N 45°38' W 122°44'0 0.2
2017-Sep-25 04:52N 45°38' W 122°44'0 0.0
2017-Sep-25 04:29N 45°38' W 122°44'0 0.1
2017-Sep-25 03:40N 45°38' W 122°44'0 0.0
2017-Sep-25 03:29N 45°38' W 122°44'0 0.0
2017-Sep-25 02:13N 45°38' W 122°44'0 0.2
2017-Sep-25 01:58N 45°38' W 122°44'0 0.1
2017-Sep-25 01:22N 45°38' W 122°44'0 0.1
2017-Sep-25 00:58N 45°38' W 122°44'0 0.1
2017-Sep-25 00:25N 45°38' W 122°44'0 0.0
2017-Sep-24 23:58N 45°38' W 122°44'0 0.1
2017-Sep-24 23:28N 45°38' W 122°44'0 0.0
2017-Sep-24 22:55N 45°38' W 122°44'0 0.0
2017-Sep-24 22:28N 45°38' W 122°44'0 0.0
2017-Sep-24 21:58N 45°38' W 122°44'0 0.0
2017-Sep-24 21:25N 45°38' W 122°44'0 0.0
2017-Sep-24 20:58N 45°38' W 122°44'0 0.0
2017-Sep-24 20:22N 45°38' W 122°44'0 0.0
2017-Sep-24 19:52N 45°38' W 122°44'0 0.0
2017-Sep-24 19:22N 45°38' W 122°44'0 0.0
2017-Sep-24 18:58N 45°38' W 122°44'0 0.0
2017-Sep-24 18:19N 45°38' W 122°44'0 0.0
2017-Sep-24 17:58N 45°38' W 122°44'0 0.0
2017-Sep-24 17:28N 45°38' W 122°44'0 0.0
2017-Sep-24 16:58N 45°38' W 122°44'0 0.0
2017-Sep-24 16:22N 45°38' W 122°44'0 0.1
2017-Sep-24 15:58N 45°38' W 122°44'0 0.1
2017-Sep-24 15:28N 45°38' W 122°44'0 0.0
2017-Sep-24 14:58N 45°38' W 122°44'0 0.0
2017-Sep-24 14:22N 45°38' W 122°44'0 0.0
2017-Sep-24 13:43N 45°38' W 122°44'0 0.0
2017-Sep-24 13:28N 45°38' W 122°44'0 0.0
2017-Sep-24 12:52N 45°38' W 122°44'0 0.0
2017-Sep-24 12:16N 45°38' W 122°44'0 0.0
2017-Sep-24 11:34N 45°38' W 122°44'0 0.1
2017-Sep-24 11:28N 45°38' W 122°44'0 0.0
2017-Sep-24 10:58N 45°38' W 122°44'0 0.0
2017-Sep-24 10:28N 45°38' W 122°44'0 0.0
2017-Sep-24 09:55N 45°38' W 122°44'0 0.0
2017-Sep-24 09:28N 45°38' W 122°44'0 0.0
2017-Sep-24 08:58N 45°38' W 122°44'0 0.0
2017-Sep-24 08:25N 45°38' W 122°44'0 0.0
2017-Sep-24 07:58N 45°38' W 122°44'0 0.0
2017-Sep-24 07:28N 45°38' W 122°44'0 0.0
2017-Sep-24 06:58N 45°38' W 122°44'0 0.0
2017-Sep-24 06:25N 45°38' W 122°44'0 0.0
2017-Sep-24 05:52N 45°38' W 122°44'0 0.0
2017-Sep-24 05:28N 45°38' W 122°44'0 0.1
2017-Sep-24 04:52N 45°38' W 122°44'0 0.1
2017-Sep-24 04:28N 45°38' W 122°44'0 0.2
2017-Sep-24 03:58N 45°38' W 122°44'0 0.1
2017-Sep-24 03:22N 45°38' W 122°44'0 0.0
2017-Sep-24 02:58N 45°38' W 122°44'0 0.1
2017-Sep-24 02:25N 45°38' W 122°44'0 0.2
2017-Sep-24 01:52N 45°38' W 122°44'0 0.1
2017-Sep-24 01:28N 45°38' W 122°44'0 0.1
2017-Sep-24 00:58N 45°38' W 122°44'0 0.1
2017-Sep-24 00:22N 45°38' W 122°44'0 0.0
2017-Sep-23 23:49N 45°38' W 122°44'0 0.0
2017-Sep-23 23:25N 45°38' W 122°44'0 0.0
2017-Sep-23 22:58N 45°38' W 122°44'0 0.0
2017-Sep-23 22:25N 45°38' W 122°44'0 0.0
2017-Sep-23 21:55N 45°38' W 122°44'0 0.0
2017-Sep-23 21:28N 45°38' W 122°44'0 0.0
2017-Sep-23 20:28N 45°38' W 122°44'0 0.0
2017-Sep-23 19:55N 45°38' W 122°44'0 0.0
2017-Sep-22 01:58N 45°38' W 122°44'0 0.1
2017-Sep-22 01:28N 45°38' W 122°44'0 0.1
2017-Sep-22 00:58N 45°38' W 122°44'0 0.1
2017-Sep-22 00:28N 45°38' W 122°44'0 0.1
2017-Sep-21 23:58N 45°38' W 122°44'0 0.1
2017-Sep-21 23:28N 45°38' W 122°44'0 0.0
2017-Sep-21 22:55N 45°38' W 122°44'0 0.0
2017-Sep-21 22:28N 45°38' W 122°44'0 0.0
2017-Sep-21 21:58N 45°38' W 122°44'0 0.0
2017-Sep-21 21:28N 45°38' W 122°44'0 0.0
2017-Sep-21 20:58N 45°38' W 122°44'0 0.0
2017-Sep-21 20:25N 45°38' W 122°44'0 0.0
2017-Sep-21 19:58N 45°38' W 122°44'0 0.0
2017-Sep-21 19:28N 45°38' W 122°44'0 0.0
2017-Sep-21 18:01N 45°38' W 122°44'0 0.1
2017-Sep-21 17:58N 45°38' W 122°44'0 0.0
2017-Sep-21 17:07N 45°38' W 122°44'0 0.0
2017-Sep-21 16:58N 45°38' W 122°44'0 0.0
2017-Sep-21 16:25N 45°38' W 122°44'0 0.0
2017-Sep-21 15:58N 45°38' W 122°44'0 0.0
2017-Sep-21 15:25N 45°38' W 122°44'0 0.1
2017-Sep-21 14:43N 45°38' W 122°44'0 0.1
2017-Sep-21 14:28N 45°38' W 122°44'0 0.1
2017-Sep-21 13:52N 45°39' W 122°44'0 0.0
2017-Sep-21 13:28N 45°38' W 122°44'0 0.1
2017-Sep-21 12:49N 45°38' W 122°44'0 0.0
2017-Sep-21 12:28N 45°38' W 122°44'0 0.0
2017-Sep-21 11:55N 45°38' W 122°44'0 0.0
2017-Sep-21 11:28N 45°38' W 122°44'0 0.0
2017-Sep-21 10:58N 45°38' W 122°44'0 0.0
2017-Sep-21 10:28N 45°38' W 122°44'0 0.0
2017-Sep-21 09:58N 45°38' W 122°44'0 0.0
2017-Sep-21 09:28N 45°38' W 122°44'0 0.0
2017-Sep-21 08:55N 45°38' W 122°44'0 0.0
2017-Sep-21 08:28N 45°38' W 122°44'0 0.0
2017-Sep-21 07:58N 45°38' W 122°44'0 0.0
2017-Sep-21 07:28N 45°38' W 122°44'0 0.0
2017-Sep-21 06:49N 45°38' W 122°44'0 0.0
2017-Sep-21 06:28N 45°38' W 122°44'0 0.0
2017-Sep-21 05:55N 45°38' W 122°44'0 0.0
2017-Sep-21 05:28N 45°38' W 122°44'0 0.0
2017-Sep-21 04:58N 45°38' W 122°44'0 0.0
2017-Sep-21 04:28N 45°38' W 122°44'0 0.0
2017-Sep-21 03:58N 45°38' W 122°44'0 0.0
2017-Sep-21 03:28N 45°38' W 122°44'0 0.0
2017-Sep-21 02:58N 45°38' W 122°44'0 0.0
2017-Sep-21 02:25N 45°38' W 122°44'0 0.1
2017-Sep-21 01:58N 45°39' W 122°44'0 0.1
2017-Sep-21 01:28N 45°39' W 122°44'0 0.1
2017-Sep-21 00:58N 45°39' W 122°44'0 0.1
2017-Sep-21 00:28N 45°39' W 122°44'0 0.1
2017-Sep-20 23:58N 45°39' W 122°44'0 0.1
2017-Sep-20 23:28N 45°38' W 122°44'0 0.0
2017-Sep-20 22:58N 45°38' W 122°44'0 0.0
2017-Sep-20 22:28N 45°38' W 122°44'0 0.0
2017-Sep-20 21:55N 45°38' W 122°44'0 0.0
2017-Sep-20 21:25N 45°38' W 122°44'0 0.0
2017-Sep-20 20:58N 45°38' W 122°44'0 0.0
2017-Sep-20 20:29N 45°38' W 122°44'2 3.9
2017-Sep-20 20:00N 45°40' W 122°46'510.3
2017-Sep-20 19:30N 45°45' W 122°46'611.5
2017-Sep-20 19:01N 45°50' W 122°47'510.9
2017-Sep-20 18:30N 45°56' W 122°48'510.0
2017-Sep-20 18:01N 46°00' W 122°51'5 9.3
2017-Sep-20 17:30N 46°05' W 122°54'5 9.7
2017-Sep-20 17:01N 46°07' W 122°60'611.1
2017-Sep-20 16:30N 46°11' W 123°06'510.4
2017-Sep-20 16:00N 46°10' W 123°14'511.0
2017-Sep-20 15:31N 46°09' W 123°21'5 9.0
2017-Sep-20 15:01N 46°12' W 123°26'8 8.1
2017-Sep-20 14:00N 46°15' W 123°36'510.7
2017-Sep-20 13:30N 46°14' W 123°44'5 9.8
2017-Sep-20 13:00N 46°12' W 123°50'4 8.5
2017-Sep-20 12:30N 46°12' W 123°56'4 8.9
2017-Sep-20 12:00N 46°15' W 124°01'4 7.5
2017-Sep-20 11:30N 46°14' W 124°06'612.6
2017-Sep-20 11:01N 46°10' W 124°12'3 6.2
2017-Sep-20 10:30N 46°08' W 124°16'2 3.9
2017-Sep-20 10:00N 46°09' W 124°15'1 1.9
2017-Sep-20 09:30N 46°09' W 124°15'3 5.0
2017-Sep-20 09:00N 46°06' W 124°17'3 6.3
2017-Sep-20 08:30N 46°04' W 124°19'4 8.6
2017-Sep-20 08:00N 46°00' W 124°23'3 6.8
2017-Sep-20 07:30N 45°57' W 124°25'3 5.0
2017-Sep-20 07:00N 45°55' W 124°26'2 4.0
2017-Sep-20 06:30N 45°53' W 124°27'2 3.9
2017-Sep-20 06:00N 45°51' W 124°29'2 4.0
2017-Sep-20 05:30N 45°50' W 124°30'3 5.4
2017-Sep-20 05:00N 45°47' W 124°32'611.2
2017-Sep-20 04:30N 45°42' W 124°35'611.5
2017-Sep-20 04:00N 45°37' W 124°39'917.4
2017-Sep-20 03:29N 45°29' W 124°45'2 4.9
2017-Sep-20 03:00N 45°27' W 124°46'  
Track history (hours):
 
Tides and Currents Weather Stations Pressure Air Temp Water Temp Dewpoint Dewpoint Depression Visibility Wind Speed Wind Dir Waves Ship Positions

Cebu Island

Last reported at 2017-Sep-29 05:20 UTC. Time now 2017-Oct-18 11:20 UTC.
Position N 46°12' W 124°57'.
Warning: this ship's position is 19 days out of date.

Length 180 m; draft 11.3 m.

Type: Cargo ship. MMSI: 374077000.

Date/timePositionNaut miles runAvg speedWind from/ knotsBaromVisibWave heightAir tempDewpointWater temp
2017-Sep-29 05:20N 46°12' W 124°57'413.3
2017-Sep-29 05:01N 46°11' W 124°51'713.3
2017-Sep-29 04:30N 46°11' W 124°42'713.0
2017-Sep-29 04:00N 46°12' W 124°32'613.0
2017-Sep-29 03:31N 46°12' W 124°23'612.5
2017-Sep-29 03:01N 46°12' W 124°14'4 8.6
2017-Sep-29 02:30N 46°14' W 124°08'510.3
2017-Sep-29 02:01N 46°15' W 124°01'510.5
2017-Sep-29 01:30N 46°12' W 123°56'4 8.7
2017-Sep-29 01:01N 46°12' W 123°49'4 7.8
2017-Sep-29 00:31N 46°14' W 123°44'5 9.9
2017-Sep-29 00:01N 46°16' W 123°38'510.8
2017-Sep-28 23:30N 46°16' W 123°30'5 9.4
2017-Sep-28 23:00N 46°13' W 123°25'7 9.1
2017-Sep-28 22:14N 46°09' W 123°17'312.7
2017-Sep-28 22:00N 46°10' W 123°14'611.1
2017-Sep-28 21:30N 46°10' W 123°06'611.8
2017-Sep-28 21:01N 46°07' W 122°59'510.0
2017-Sep-28 20:30N 46°04' W 122°53'510.3
2017-Sep-28 20:01N 45°59' W 122°50'510.2
2017-Sep-28 19:30N 45°54' W 122°48'511.0
2017-Sep-28 19:00N 45°48' W 122°48'611.2
2017-Sep-28 18:30N 45°43' W 122°46'4 8.9
2017-Sep-28 18:00N 45°39' W 122°44'2 3.8
2017-Sep-28 17:30N 45°38' W 122°42'0 0.2
2017-Sep-28 16:56N 45°38' W 122°42'0 0.0
2017-Sep-28 16:28N 45°38' W 122°42'0 0.0
2017-Sep-28 15:58N 45°38' W 122°42'0 0.0
2017-Sep-28 15:07N 45°38' W 122°42'0 0.0
2017-Sep-28 14:55N 45°38' W 122°42'0 0.0
2017-Sep-28 14:28N 45°38' W 122°42'0 0.0
2017-Sep-28 13:56N 45°38' W 122°42'0 0.0
2017-Sep-28 13:22N 45°38' W 122°42'0 0.0
2017-Sep-28 12:58N 45°38' W 122°42'0 0.0
2017-Sep-28 12:28N 45°38' W 122°42'0 0.0
2017-Sep-28 11:58N 45°38' W 122°42'0 0.0
2017-Sep-28 11:28N 45°38' W 122°42'0 0.0
2017-Sep-28 10:58N 45°38' W 122°42'0 0.0
2017-Sep-28 10:29N 45°38' W 122°42'0 0.0
2017-Sep-28 09:55N 45°38' W 122°42'0 0.0
2017-Sep-28 09:28N 45°38' W 122°42'0 0.0
2017-Sep-28 08:58N 45°38' W 122°42'0 0.0
2017-Sep-28 08:25N 45°38' W 122°42'0 0.0
2017-Sep-28 07:49N 45°38' W 122°42'0 0.0
2017-Sep-28 07:25N 45°38' W 122°42'0 0.0
2017-Sep-28 06:58N 45°38' W 122°42'0 0.0
2017-Sep-28 06:25N 45°38' W 122°42'0 0.0
2017-Sep-28 05:58N 45°38' W 122°42'0 0.0
2017-Sep-28 05:28N 45°38' W 122°42'0 0.0
2017-Sep-28 04:58N 45°38' W 122°42'0 0.0
2017-Sep-28 04:25N 45°38' W 122°42'0 0.0
2017-Sep-28 03:58N 45°38' W 122°42'0 0.0
2017-Sep-28 03:22N 45°38' W 122°42'0 0.0
2017-Sep-28 02:58N 45°38' W 122°42'0 0.0
2017-Sep-28 02:22N 45°38' W 122°42'0 0.0
2017-Sep-28 01:58N 45°38' W 122°42'0 0.0
2017-Sep-28 01:25N 45°38' W 122°42'0 0.0
2017-Sep-28 00:58N 45°38' W 122°42'0 0.0
2017-Sep-28 00:25N 45°38' W 122°42'0 0.0
2017-Sep-27 23:52N 45°38' W 122°42'0 0.0
2017-Sep-27 23:13N 45°38' W 122°42'0 0.0
2017-Sep-27 22:58N 45°38' W 122°42'0 0.0
2017-Sep-27 22:28N 45°38' W 122°42'0 0.0
2017-Sep-27 21:58N 45°38' W 122°42'0 0.0
2017-Sep-27 21:28N 45°38' W 122°42'0 0.0
2017-Sep-27 20:58N 45°38' W 122°42'0 0.0
2017-Sep-27 20:28N 45°38' W 122°42'0 0.0
2017-Sep-27 19:58N 45°38' W 122°42'0 0.0
2017-Sep-27 19:28N 45°38' W 122°42'0 0.0
2017-Sep-27 18:58N 45°38' W 122°42'0 0.0
2017-Sep-27 18:28N 45°38' W 122°42'0 0.0
2017-Sep-27 17:58N 45°38' W 122°42'0 0.0
2017-Sep-27 17:28N 45°38' W 122°42'0 0.0
2017-Sep-27 16:58N 45°38' W 122°42'0 0.0
2017-Sep-27 16:28N 45°38' W 122°42'0 0.0
2017-Sep-27 15:58N 45°38' W 122°42'0 0.0
2017-Sep-27 15:28N 45°38' W 122°42'0 0.0
2017-Sep-27 14:58N 45°38' W 122°42'0 0.0
2017-Sep-27 14:25N 45°38' W 122°42'0 0.0
2017-Sep-27 13:58N 45°38' W 122°42'0 0.0
2017-Sep-27 13:28N 45°38' W 122°42'0 0.0
2017-Sep-27 12:58N 45°38' W 122°42'0 0.0
2017-Sep-27 12:28N 45°38' W 122°42'0 0.0
2017-Sep-27 11:58N 45°38' W 122°42'0 0.0
2017-Sep-27 11:25N 45°38' W 122°42'0 0.0
2017-Sep-27 10:58N 45°38' W 122°42'0 0.0
2017-Sep-27 10:28N 45°38' W 122°42'0 0.0
2017-Sep-27 09:58N 45°38' W 122°42'0 0.0
2017-Sep-27 09:28N 45°38' W 122°42'0 0.0
2017-Sep-27 08:58N 45°38' W 122°42'0 0.0
2017-Sep-27 08:25N 45°38' W 122°42'0 0.0
2017-Sep-27 07:58N 45°38' W 122°42'0 0.0
2017-Sep-27 07:28N 45°38' W 122°42'0 0.0
2017-Sep-27 06:52N 45°38' W 122°42'0 0.0
2017-Sep-27 06:28N 45°38' W 122°42'0 0.0
2017-Sep-27 05:55N 45°38' W 122°42'0 0.0
2017-Sep-27 05:28N 45°38' W 122°42'0 0.0
2017-Sep-27 04:55N 45°38' W 122°42'0 0.0
2017-Sep-27 04:28N 45°38' W 122°42'0 0.0
2017-Sep-27 03:58N 45°38' W 122°42'0 0.0
2017-Sep-27 03:28N 45°38' W 122°42'0 0.0
2017-Sep-27 02:55N 45°38' W 122°42'0 0.0
2017-Sep-27 02:28N 45°38' W 122°42'0 0.0
2017-Sep-27 01:58N 45°38' W 122°42'0 0.0
2017-Sep-27 01:28N 45°38' W 122°42'0 0.0
2017-Sep-27 00:46N 45°38' W 122°42'0 0.0
2017-Sep-27 00:28N 45°38' W 122°42'0 0.0
2017-Sep-26 23:58N 45°38' W 122°42'0 0.0
2017-Sep-26 23:28N 45°38' W 122°42'0 0.0
2017-Sep-26 22:46N 45°38' W 122°42'0 0.0
2017-Sep-26 22:28N 45°38' W 122°42'0 0.0
2017-Sep-26 21:55N 45°38' W 122°42'0 0.0
2017-Sep-26 21:19N 45°38' W 122°42'0 0.0
2017-Sep-26 20:58N 45°38' W 122°42'0 0.0
2017-Sep-26 20:19N 45°38' W 122°42'0 0.0
2017-Sep-26 19:46N 45°38' W 122°42'0 0.0
2017-Sep-26 19:28N 45°38' W 122°42'0 0.0
2017-Sep-26 18:58N 45°38' W 122°42'0 0.0
2017-Sep-26 18:28N 45°38' W 122°42'0 0.0
2017-Sep-26 17:58N 45°38' W 122°42'0 0.0
2017-Sep-26 17:28N 45°38' W 122°42'0 0.0
2017-Sep-26 16:58N 45°38' W 122°42'0 0.0
2017-Sep-26 16:28N 45°38' W 122°42'0 0.0
2017-Sep-26 15:58N 45°38' W 122°42'0 0.0
2017-Sep-26 15:28N 45°38' W 122°42'0 0.0
2017-Sep-26 14:58N 45°38' W 122°42'0 0.0
2017-Sep-26 14:28N 45°38' W 122°42'0 0.0
2017-Sep-26 13:58N 45°38' W 122°42'0 0.0
2017-Sep-26 13:28N 45°38' W 122°42'0 0.0
2017-Sep-26 12:58N 45°38' W 122°42'0 0.0
2017-Sep-26 12:28N 45°38' W 122°42'0 0.0
2017-Sep-26 11:52N 45°38' W 122°42'0 0.0
2017-Sep-26 11:22N 45°38' W 122°42'0 0.1
2017-Sep-26 10:55N 45°38' W 122°42'0 0.0
2017-Sep-26 10:28N 45°38' W 122°42'0 0.0
2017-Sep-26 09:58N 45°38' W 122°42'0 0.1
2017-Sep-26 09:28N 45°38' W 122°42'0 0.0
2017-Sep-26 08:58N 45°38' W 122°42'0 0.0
2017-Sep-26 08:22N 45°38' W 122°42'0 0.0
2017-Sep-26 07:58N 45°38' W 122°42'0 0.0
2017-Sep-26 07:28N 45°38' W 122°42'0 0.0
2017-Sep-26 06:55N 45°38' W 122°42'0 0.0
2017-Sep-26 06:25N 45°38' W 122°42'0 0.0
2017-Sep-26 05:58N 45°38' W 122°42'0 0.0
2017-Sep-26 05:28N 45°38' W 122°42'0 0.0
2017-Sep-26 04:58N 45°38' W 122°42'0 0.0
2017-Sep-26 04:10N 45°38' W 122°42'0 0.0
2017-Sep-26 03:58N 45°38' W 122°42'0 0.0
2017-Sep-26 03:28N 45°38' W 122°42'0 0.0
2017-Sep-26 02:58N 45°38' W 122°42'0 0.0
2017-Sep-26 02:22N 45°38' W 122°42'0 0.0
2017-Sep-26 01:58N 45°38' W 122°42'0 0.0
2017-Sep-26 01:28N 45°38' W 122°42'0 0.0
2017-Sep-26 00:58N 45°38' W 122°42'0 0.0
2017-Sep-26 00:25N 45°38' W 122°42'0 0.0
2017-Sep-25 23:55N 45°38' W 122°42'0 0.0
2017-Sep-25 23:29N 45°38' W 122°42'0 0.0
2017-Sep-25 22:43N 45°38' W 122°42'0 0.0
2017-Sep-25 22:28N 45°38' W 122°42'0 0.0
2017-Sep-25 21:58N 45°38' W 122°42'0 0.0
2017-Sep-25 21:28N 45°38' W 122°42'0 0.0
2017-Sep-25 20:52N 45°38' W 122°42'0 0.0
2017-Sep-25 20:01N 45°38' W 122°42'0 0.1
2017-Sep-25 19:55N 45°38' W 122°42'0 0.0
2017-Sep-25 19:22N 45°38' W 122°42'0 0.0
2017-Sep-25 18:55N 45°38' W 122°42'0 0.0
2017-Sep-25 18:28N 45°38' W 122°42'0 0.0
2017-Sep-25 17:58N 45°38' W 122°42'0 0.0
2017-Sep-25 17:07N 45°38' W 122°42'0 0.0
2017-Sep-25 16:52N 45°38' W 122°42'0 0.0
2017-Sep-25 16:28N 45°38' W 122°42'0 0.0
2017-Sep-25 15:55N 45°38' W 122°42'0 0.0
2017-Sep-25 15:25N 45°38' W 122°42'0 0.0
2017-Sep-25 14:58N 45°38' W 122°42'0 0.0
2017-Sep-25 14:28N 45°38' W 122°42'0 0.0
2017-Sep-25 13:52N 45°38' W 122°42'0 0.0
2017-Sep-25 13:30N 45°38' W 122°42'1 2.6
2017-Sep-25 13:00N 45°38' W 122°43'0 0.5
2017-Sep-25 12:16N 45°38' W 122°44'0 0.0
2017-Sep-25 11:58N 45°38' W 122°44'0 0.0
2017-Sep-25 11:28N 45°38' W 122°44'0 0.0
2017-Sep-25 10:58N 45°38' W 122°44'0 0.0
2017-Sep-25 10:22N 45°38' W 122°44'0 0.0
2017-Sep-25 09:55N 45°38' W 122°44'0 0.0
2017-Sep-25 09:28N 45°38' W 122°44'0 0.0
2017-Sep-25 08:58N 45°38' W 122°44'0 0.0
2017-Sep-25 08:10N 45°38' W 122°44'0 0.0
2017-Sep-25 07:59N 45°38' W 122°44'0 0.0
2017-Sep-25 07:29N 45°38' W 122°44'0 0.0
2017-Sep-25 06:58N 45°38' W 122°44'0 0.0
2017-Sep-25 06:29N 45°38' W 122°44'0 0.0
2017-Sep-25 05:59N 45°38' W 122°44'0 0.1
2017-Sep-25 05:29N 45°38' W 122°44'0 0.2
2017-Sep-25 04:52N 45°38' W 122°44'0 0.0
2017-Sep-25 04:29N 45°38' W 122°44'0 0.1
2017-Sep-25 03:40N 45°38' W 122°44'0 0.0
2017-Sep-25 03:29N 45°38' W 122°44'0 0.0
2017-Sep-25 02:13N 45°38' W 122°44'0 0.2
2017-Sep-25 01:58N 45°38' W 122°44'0 0.1
2017-Sep-25 01:22N 45°38' W 122°44'0 0.1
2017-Sep-25 00:58N 45°38' W 122°44'0 0.1
2017-Sep-25 00:25N 45°38' W 122°44'0 0.0
2017-Sep-24 23:58N 45°38' W 122°44'0 0.1
2017-Sep-24 23:28N 45°38' W 122°44'0 0.0
2017-Sep-24 22:55N 45°38' W 122°44'0 0.0
2017-Sep-24 22:28N 45°38' W 122°44'0 0.0
2017-Sep-24 21:58N 45°38' W 122°44'0 0.0
2017-Sep-24 21:25N 45°38' W 122°44'0 0.0
2017-Sep-24 20:58N 45°38' W 122°44'0 0.0
2017-Sep-24 20:22N 45°38' W 122°44'0 0.0
2017-Sep-24 19:52N 45°38' W 122°44'0 0.0
2017-Sep-24 19:22N 45°38' W 122°44'0 0.0
2017-Sep-24 18:58N 45°38' W 122°44'0 0.0
2017-Sep-24 18:19N 45°38' W 122°44'0 0.0
2017-Sep-24 17:58N 45°38' W 122°44'0 0.0
2017-Sep-24 17:28N 45°38' W 122°44'0 0.0
2017-Sep-24 16:58N 45°38' W 122°44'0 0.0
2017-Sep-24 16:22N 45°38' W 122°44'0 0.1
2017-Sep-24 15:58N 45°38' W 122°44'0 0.1
2017-Sep-24 15:28N 45°38' W 122°44'0 0.0
2017-Sep-24 14:58N 45°38' W 122°44'0 0.0
2017-Sep-24 14:22N 45°38' W 122°44'0 0.0
2017-Sep-24 13:43N 45°38' W 122°44'0 0.0
2017-Sep-24 13:28N 45°38' W 122°44'0 0.0
2017-Sep-24 12:52N 45°38' W 122°44'0 0.0
2017-Sep-24 12:16N 45°38' W 122°44'0 0.0
2017-Sep-24 11:34N 45°38' W 122°44'0 0.1
2017-Sep-24 11:28N 45°38' W 122°44'0 0.0
2017-Sep-24 10:58N 45°38' W 122°44'0 0.0
2017-Sep-24 10:28N 45°38' W 122°44'0 0.0
2017-Sep-24 09:55N 45°38' W 122°44'0 0.0
2017-Sep-24 09:28N 45°38' W 122°44'0 0.0
2017-Sep-24 08:58N 45°38' W 122°44'0 0.0
2017-Sep-24 08:25N 45°38' W 122°44'0 0.0
2017-Sep-24 07:58N 45°38' W 122°44'0 0.0
2017-Sep-24 07:28N 45°38' W 122°44'0 0.0
2017-Sep-24 06:58N 45°38' W 122°44'0 0.0
2017-Sep-24 06:25N 45°38' W 122°44'0 0.0
2017-Sep-24 05:52N 45°38' W 122°44'0 0.0
2017-Sep-24 05:28N 45°38' W 122°44'0 0.1
2017-Sep-24 04:52N 45°38' W 122°44'0 0.1
2017-Sep-24 04:28N 45°38' W 122°44'0 0.2
2017-Sep-24 03:58N 45°38' W 122°44'0 0.1
2017-Sep-24 03:22N 45°38' W 122°44'0 0.0
2017-Sep-24 02:58N 45°38' W 122°44'0 0.1
2017-Sep-24 02:25N 45°38' W 122°44'0 0.2
2017-Sep-24 01:52N 45°38' W 122°44'0 0.1
2017-Sep-24 01:28N 45°38' W 122°44'0 0.1
2017-Sep-24 00:58N 45°38' W 122°44'0 0.1
2017-Sep-24 00:22N 45°38' W 122°44'0 0.0
2017-Sep-23 23:49N 45°38' W 122°44'0 0.0
2017-Sep-23 23:25N 45°38' W 122°44'0 0.0
2017-Sep-23 22:58N 45°38' W 122°44'0 0.0
2017-Sep-23 22:25N 45°38' W 122°44'0 0.0
2017-Sep-23 21:55N 45°38' W 122°44'0 0.0
2017-Sep-23 21:28N 45°38' W 122°44'0 0.0
2017-Sep-23 20:28N 45°38' W 122°44'0 0.0
2017-Sep-23 19:55N 45°38' W 122°44'0 0.0
2017-Sep-22 01:58N 45°38' W 122°44'0 0.1
2017-Sep-22 01:28N 45°38' W 122°44'0 0.1
2017-Sep-22 00:58N 45°38' W 122°44'0 0.1
2017-Sep-22 00:28N 45°38' W 122°44'0 0.1
2017-Sep-21 23:58N 45°38' W 122°44'0 0.1
2017-Sep-21 23:28N 45°38' W 122°44'0 0.0
2017-Sep-21 22:55N 45°38' W 122°44'0 0.0
2017-Sep-21 22:28N 45°38' W 122°44'0 0.0
2017-Sep-21 21:58N 45°38' W 122°44'0 0.0
2017-Sep-21 21:28N 45°38' W 122°44'0 0.0
2017-Sep-21 20:58N 45°38' W 122°44'0 0.0
2017-Sep-21 20:25N 45°38' W 122°44'0 0.0
2017-Sep-21 19:58N 45°38' W 122°44'0 0.0
2017-Sep-21 19:28N 45°38' W 122°44'0 0.0
2017-Sep-21 18:01N 45°38' W 122°44'0 0.1
2017-Sep-21 17:58N 45°38' W 122°44'0 0.0
2017-Sep-21 17:07N 45°38' W 122°44'0 0.0
2017-Sep-21 16:58N 45°38' W 122°44'0 0.0
2017-Sep-21 16:25N 45°38' W 122°44'0 0.0
2017-Sep-21 15:58N 45°38' W 122°44'0 0.0
2017-Sep-21 15:25N 45°38' W 122°44'0 0.1
2017-Sep-21 14:43N 45°38' W 122°44'0 0.1
2017-Sep-21 14:28N 45°38' W 122°44'0 0.1
2017-Sep-21 13:52N 45°39' W 122°44'0 0.0
2017-Sep-21 13:28N 45°38' W 122°44'0 0.1
2017-Sep-21 12:49N 45°38' W 122°44'0 0.0
2017-Sep-21 12:28N 45°38' W 122°44'0 0.0
2017-Sep-21 11:55N 45°38' W 122°44'0 0.0
2017-Sep-21 11:28N 45°38' W 122°44'0 0.0
2017-Sep-21 10:58N 45°38' W 122°44'0 0.0
2017-Sep-21 10:28N 45°38' W 122°44'0 0.0
2017-Sep-21 09:58N 45°38' W 122°44'0 0.0
2017-Sep-21 09:28N 45°38' W 122°44'0 0.0
2017-Sep-21 08:55N 45°38' W 122°44'0 0.0
2017-Sep-21 08:28N 45°38' W 122°44'0 0.0
2017-Sep-21 07:58N 45°38' W 122°44'0 0.0
2017-Sep-21 07:28N 45°38' W 122°44'0 0.0
2017-Sep-21 06:49N 45°38' W 122°44'0 0.0
2017-Sep-21 06:28N 45°38' W 122°44'0 0.0
2017-Sep-21 05:55N 45°38' W 122°44'0 0.0
2017-Sep-21 05:28N 45°38' W 122°44'0 0.0
2017-Sep-21 04:58N 45°38' W 122°44'0 0.0
2017-Sep-21 04:28N 45°38' W 122°44'0 0.0
2017-Sep-21 03:58N 45°38' W 122°44'0 0.0
2017-Sep-21 03:28N 45°38' W 122°44'0 0.0
2017-Sep-21 02:58N 45°38' W 122°44'0 0.0
2017-Sep-21 02:25N 45°38' W 122°44'0 0.1
2017-Sep-21 01:58N 45°39' W 122°44'0 0.1
2017-Sep-21 01:28N 45°39' W 122°44'0 0.1
2017-Sep-21 00:58N 45°39' W 122°44'0 0.1
2017-Sep-21 00:28N 45°39' W 122°44'0 0.1
2017-Sep-20 23:58N 45°39' W 122°44'0 0.1
2017-Sep-20 23:28N 45°38' W 122°44'0 0.0
2017-Sep-20 22:58N 45°38' W 122°44'0 0.0
2017-Sep-20 22:28N 45°38' W 122°44'0 0.0
2017-Sep-20 21:55N 45°38' W 122°44'0 0.0
2017-Sep-20 21:25N 45°38' W 122°44'0 0.0
2017-Sep-20 20:58N 45°38' W 122°44'0 0.0
2017-Sep-20 20:29N 45°38' W 122°44'2 3.9
2017-Sep-20 20:00N 45°40' W 122°46'510.3
2017-Sep-20 19:30N 45°45' W 122°46'611.5
2017-Sep-20 19:01N 45°50' W 122°47'510.9
2017-Sep-20 18:30N 45°56' W 122°48'510.0
2017-Sep-20 18:01N 46°00' W 122°51'5 9.3
2017-Sep-20 17:30N 46°05' W 122°54'5 9.7
2017-Sep-20 17:01N 46°07' W 122°60'611.1
2017-Sep-20 16:30N 46°11' W 123°06'510.4
2017-Sep-20 16:00N 46°10' W 123°14'511.0
2017-Sep-20 15:31N 46°09' W 123°21'5 9.0
2017-Sep-20 15:01N 46°12' W 123°26'8 8.1
2017-Sep-20 14:00N 46°15' W 123°36'510.7
2017-Sep-20 13:30N 46°14' W 123°44'5 9.8
2017-Sep-20 13:00N 46°12' W 123°50'4 8.5
2017-Sep-20 12:30N 46°12' W 123°56'4 8.9
2017-Sep-20 12:00N 46°15' W 124°01'4 7.5
2017-Sep-20 11:30N 46°14' W 124°06'612.6
2017-Sep-20 11:01N 46°10' W 124°12'3 6.2
2017-Sep-20 10:30N 46°08' W 124°16'2 3.9
2017-Sep-20 10:00N 46°09' W 124°15'1 1.9
2017-Sep-20 09:30N 46°09' W 124°15'3 5.0
2017-Sep-20 09:00N 46°06' W 124°17'3 6.3
2017-Sep-20 08:30N 46°04' W 124°19'4 8.6
2017-Sep-20 08:00N 46°00' W 124°23'3 6.8
2017-Sep-20 07:30N 45°57' W 124°25'3 5.0
2017-Sep-20 07:00N 45°55' W 124°26'2 4.0
2017-Sep-20 06:30N 45°53' W 124°27'2 3.9
2017-Sep-20 06:00N 45°51' W 124°29'2 4.0
2017-Sep-20 05:30N 45°50' W 124°30'3 5.4
2017-Sep-20 05:00N 45°47' W 124°32'611.2
2017-Sep-20 04:30N 45°42' W 124°35'611.5
2017-Sep-20 04:00N 45°37' W 124°39'917.4
2017-Sep-20 03:29N 45°29' W 124°45'2 4.9
2017-Sep-20 03:00N 45°27' W 124°46'  

Dump ship's entire track history